createdAt,value
2023-01-11T20:59:31.153Z,102831.31
2023-01-11T21:02:28.169Z,102834.47
2023-01-11T21:05:33.298Z,102835.03
2023-01-11T21:08:18.152Z,102837.19
2023-01-11T21:11:03.543Z,102844.53
2023-01-11T21:13:51.483Z,102843.50
2023-01-11T21:16:44.296Z,102837.16
2023-01-11T21:19:24.381Z,102802.31
2023-01-11T21:22:17.590Z,102823.44
2023-01-11T21:25:03.401Z,102820.03
2023-01-11T21:27:59.704Z,102821.34
2023-01-11T21:31:00.995Z,102806.97
2023-01-11T21:34:03.896Z,102822.66
2023-01-11T21:36:38.181Z,102817.00
2023-01-11T21:39:06.487Z,102798.31
2023-01-11T21:41:53.675Z,102794.56
2023-01-11T21:44:23.356Z,102798.91
2023-01-11T21:46:54.897Z,102799.19
2023-01-11T21:49:25.425Z,102818.66
2023-01-11T21:51:55.301Z,102836.44
2023-01-11T21:54:23.523Z,102835.00
2023-01-11T21:56:51.712Z,102827.06
2023-01-11T21:59:20.988Z,102830.81
2023-01-11T22:01:50.236Z,102835.56
2023-01-11T22:04:22.992Z,102834.28
2023-01-11T22:06:56.138Z,102837.59
2023-01-11T22:09:27.957Z,102840.03
2023-01-11T22:11:56.299Z,102837.31
2023-01-11T22:14:24.165Z,102825.19
2023-01-11T22:16:52.350Z,102830.22
2023-01-11T22:19:21.644Z,102835.25
2023-01-11T22:21:49.472Z,102836.09
2023-01-11T22:24:18.781Z,102834.09
2023-01-11T22:26:47.159Z,102840.28
2023-01-11T22:29:19.484Z,102849.34
2023-01-11T22:31:50.672Z,102833.06
2023-01-11T22:34:19.131Z,102825.72
2023-01-11T22:36:47.254Z,102841.00
2023-01-11T22:39:15.743Z,102836.09
2023-01-11T22:41:46.306Z,102836.81
2023-01-11T22:44:14.352Z,102834.06
2023-01-11T22:46:45.041Z,102844.41
2023-01-11T22:49:17.039Z,102835.06
2023-01-11T22:51:47.020Z,102848.31
2023-01-11T22:54:16.130Z,102844.41
2023-01-11T22:56:45.993Z,102854.50
2023-01-11T22:59:15.689Z,102851.34
2023-01-11T23:01:43.346Z,102865.44
2023-01-11T23:04:19.078Z,102852.66
2023-01-11T23:06:46.960Z,102860.91
2023-01-11T23:09:18.606Z,102858.06
2023-01-11T23:12:10.558Z,102863.53
2023-01-11T23:14:38.392Z,102863.28
2023-01-11T23:17:08.063Z,102855.50
2023-01-11T23:19:43.555Z,102866.16
2023-01-11T23:22:11.536Z,102870.19
2023-01-11T23:24:41.888Z,102875.41
2023-01-11T23:27:10.088Z,102874.97
2023-01-11T23:29:40.752Z,102872.09
2023-01-11T23:32:10.792Z,102882.31
2023-01-11T23:34:39.859Z,102877.41
2023-01-11T23:37:09.109Z,102887.34
2023-01-11T23:39:38.898Z,102865.59
2023-01-11T23:42:27.502Z,102875.53
2023-01-11T23:44:59.946Z,102866.91
2023-01-11T23:47:30.629Z,102869.66
2023-01-11T23:50:01.528Z,102862.72
2023-01-11T23:52:31.320Z,102880.59
2023-01-11T23:55:00.467Z,102874.53
2023-01-11T23:57:28.679Z,102863.28
2023-01-11T23:59:56.360Z,102867.63
